createdAt,value
2022-09-17T00:01:08.167Z,31.30
2022-09-17T00:03:35.461Z,22.02
2022-09-17T00:06:08.229Z,21.15
2022-09-17T00:08:37.155Z,17.73
2022-09-17T00:11:18.290Z,19.83
2022-09-17T00:13:45.172Z,24.02
2022-09-17T00:16:12.903Z,20.95
2022-09-17T00:18:42.019Z,17.52
2022-09-17T00:21:17.331Z,17.65
2022-09-17T00:23:45.136Z,19.65
2022-09-17T00:26:12.341Z,18.63
2022-09-17T00:28:39.116Z,17.13
2022-09-17T00:31:10.135Z,19.75
2022-09-17T00:33:37.314Z,17.38
2022-09-17T00:36:05.600Z,19.35
2022-09-17T00:38:33.500Z,20.30
2022-09-17T00:41:00.986Z,21.60
2022-09-17T00:43:47.662Z,18.67
2022-09-17T00:46:35.795Z,18.08
2022-09-17T00:49:07.771Z,17.65
2022-09-17T00:51:41.806Z,24.75
2022-09-17T00:54:10.934Z,20.35
2022-09-17T00:56:41.120Z,23.45
2022-09-17T00:59:08.721Z,18.17
2022-09-17T01:01:36.510Z,20.50
2022-09-17T01:04:03.777Z,17.92
2022-09-17T01:06:44.977Z,24.30
2022-09-17T01:09:14.754Z,20.60
2022-09-17T01:12:35.876Z,19.40
2022-09-17T01:15:03.636Z,19.85
2022-09-17T01:17:47.206Z,22.45
2022-09-17T01:20:41.654Z,21.63
2022-09-17T01:23:08.586Z,24.77
2022-09-17T01:26:06.257Z,21.50
2022-09-17T01:29:04.323Z,22.55
2022-09-17T01:31:41.861Z,21.42
2022-09-17T01:34:44.142Z,21.25
2022-09-17T01:37:17.606Z,18.23
2022-09-17T01:39:53.174Z,21.08
2022-09-17T01:42:34.038Z,20.13
2022-09-17T01:45:09.764Z,17.95
2022-09-17T01:47:48.500Z,21.70
2022-09-17T01:50:22.018Z,21.23
2022-09-17T01:52:52.822Z,20.52
2022-09-17T01:55:22.802Z,21.25
2022-09-17T01:58:13.222Z,18.55
2022-09-17T02:00:43.712Z,20.33
2022-09-17T02:03:12.709Z,26.77
2022-09-17T02:06:00.482Z,31.37
2022-09-17T02:08:36.101Z,35.13
2022-09-17T02:11:10.370Z,41.95
2022-09-17T02:13:55.633Z,38.70
2022-09-17T02:16:29.184Z,35.17
2022-09-17T02:19:02.848Z,41.65
2022-09-17T02:21:47.512Z,47.40
2022-09-17T02:24:30.021Z,38.03
2022-09-17T02:27:00.333Z,38.13
2022-09-17T02:29:33.998Z,35.97
2022-09-17T02:32:01.603Z,34.70
2022-09-17T02:34:29.625Z,40.80
2022-09-17T02:36:59.529Z,41.05
2022-09-17T02:41:53.461Z,30.85
2022-09-17T02:44:45.673Z,43.38
2022-09-17T02:47:34.137Z,30.40
2022-09-17T02:50:42.448Z,35.97
2022-09-17T02:53:38.408Z,37.05
2022-09-17T02:56:13.861Z,41.20
2022-09-17T02:59:09.483Z,33.10
2022-09-17T03:01:44.754Z,33.00
2022-09-17T03:04:16.138Z,40.60
2022-09-17T03:06:47.617Z,34.13
2022-09-17T03:09:17.185Z,29.23
2022-09-17T03:11:44.058Z,42.45
2022-09-17T03:14:10.813Z,31.50
2022-09-17T03:16:37.639Z,29.48
2022-09-17T03:19:04.489Z,36.30
2022-09-17T03:21:31.572Z,31.08
2022-09-17T03:24:00.403Z,26.73
2022-09-17T03:26:27.795Z,28.15
2022-09-17T03:28:54.637Z,29.25
2022-09-17T03:31:21.456Z,23.00
2022-09-17T03:33:48.628Z,20.42
2022-09-17T03:36:15.528Z,29.50
2022-09-17T03:38:42.401Z,24.80
2022-09-17T03:41:09.276Z,24.35
2022-09-17T03:43:36.146Z,28.23
2022-09-17T03:46:03.476Z,24.23
2022-09-17T03:48:30.561Z,23.60
2022-09-17T03:50:57.498Z,20.55
2022-09-17T03:53:24.470Z,30.75
2022-09-17T03:55:51.218Z,24.75
2022-09-17T03:58:18.167Z,24.52
2022-09-17T04:00:44.923Z,25.40
2022-09-17T04:03:11.692Z,26.58
2022-09-17T04:05:38.654Z,33.15
2022-09-17T04:08:05.473Z,34.75
2022-09-17T04:10:32.236Z,26.88
2022-09-17T04:12:59.087Z,30.00
2022-09-17T04:15:25.836Z,29.42
2022-09-17T04:17:57.807Z,32.42
2022-09-17T04:20:26.982Z,25.38
2022-09-17T04:22:54.116Z,23.23
2022-09-17T04:25:20.924Z,27.33
2022-09-17T04:27:49.097Z,25.98
2022-09-17T04:30:18.016Z,26.35
2022-09-17T04:32:45.806Z,22.47
2022-09-17T04:35:13.604Z,24.33
2022-09-17T04:37:41.336Z,26.70
2022-09-17T04:40:09.271Z,23.17
2022-09-17T04:42:36.161Z,24.42
2022-09-17T04:45:03.079Z,24.42
2022-09-17T04:47:29.801Z,20.33
2022-09-17T04:49:56.665Z,24.70
2022-09-17T04:52:26.495Z,22.77
2022-09-17T04:54:55.740Z,23.60
2022-09-17T04:57:23.883Z,21.23
2022-09-17T04:59:50.608Z,26.42
2022-09-17T05:02:17.634Z,21.05
2022-09-17T05:04:44.472Z,18.88
2022-09-17T05:07:13.842Z,26.27
2022-09-17T05:09:40.860Z,23.98
2022-09-17T05:12:07.919Z,24.83
2022-09-17T05:14:34.753Z,23.15
2022-09-17T05:17:01.464Z,21.85
2022-09-17T05:19:28.334Z,23.15
2022-09-17T05:21:55.036Z,22.10
2022-09-17T05:24:21.801Z,20.88
2022-09-17T05:26:48.652Z,19.65
2022-09-17T05:29:15.428Z,20.55
2022-09-17T05:31:42.256Z,23.23
2022-09-17T05:34:09.544Z,27.33
2022-09-17T05:36:36.237Z,24.70
2022-09-17T05:39:03.063Z,21.08
2022-09-17T05:41:29.829Z,24.67
2022-09-17T05:43:57.228Z,21.83
2022-09-17T05:46:24.054Z,22.42
2022-09-17T05:48:50.878Z,20.58
2022-09-17T05:51:18.987Z,19.52
2022-09-17T05:53:45.680Z,16.65
2022-09-17T05:56:12.893Z,21.30
2022-09-17T05:58:39.588Z,18.90
2022-09-17T06:01:06.406Z,21.33
2022-09-17T06:03:33.562Z,19.02
2022-09-17T06:06:00.877Z,21.27
2022-09-17T06:08:29.221Z,20.45
2022-09-17T06:11:00.199Z,25.65
2022-09-17T06:13:29.223Z,20.70
2022-09-17T06:15:56.213Z,19.58
2022-09-17T06:18:23.008Z,22.13
2022-09-17T06:21:04.160Z,20.50
2022-09-17T06:23:37.747Z,24.75
2022-09-17T06:26:06.190Z,25.20
2022-09-17T06:28:34.273Z,19.52
2022-09-17T06:31:05.283Z,25.83
2022-09-17T06:33:33.101Z,22.45
2022-09-17T06:36:01.787Z,22.65
2022-09-17T06:38:29.620Z,24.50
2022-09-17T06:40:56.909Z,25.85
2022-09-17T06:43:24.257Z,23.17
2022-09-17T06:45:55.055Z,20.15
2022-09-17T06:48:23.272Z,22.63
2022-09-17T06:50:54.469Z,15.18
2022-09-17T06:53:24.747Z,26.73
2022-09-17T06:55:51.635Z,39.17
2022-09-17T06:58:18.349Z,34.83
2022-09-17T07:00:45.269Z,19.90
2022-09-17T07:03:12.444Z,13.82
2022-09-17T07:05:39.146Z,12.02
2022-09-17T07:08:05.929Z,10.95
2022-09-17T07:10:32.916Z,13.10
2022-09-17T07:12:59.608Z,13.68
2022-09-17T07:15:26.573Z,11.35
2022-09-17T07:17:53.662Z,16.45
2022-09-17T07:20:20.397Z,11.15
2022-09-17T07:22:55.861Z,14.20
2022-09-17T07:25:22.563Z,19.38
2022-09-17T07:27:49.272Z,17.42
2022-09-17T07:30:16.217Z,12.18
2022-09-17T07:32:43.046Z,19.30
2022-09-17T07:35:09.812Z,26.50
2022-09-17T07:37:36.646Z,24.55
2022-09-17T07:40:06.935Z,12.63
2022-09-17T07:42:34.231Z,32.00
2022-09-17T07:45:02.146Z,10.00
2022-09-17T07:47:29.192Z,21.10
2022-09-17T07:49:55.873Z,10.68
2022-09-17T07:52:22.767Z,15.90
2022-09-17T07:54:49.615Z,11.75
2022-09-17T07:57:16.455Z,9.85
2022-09-17T07:59:43.389Z,10.68
2022-09-17T08:02:14.441Z,10.15
2022-09-17T08:04:44.332Z,16.10
2022-09-17T08:07:13.247Z,11.13
2022-09-17T08:09:39.963Z,9.73
2022-09-17T08:12:07.231Z,10.32
2022-09-17T08:14:33.944Z,10.20
2022-09-17T08:17:00.668Z,12.95
2022-09-17T08:19:29.986Z,12.00
2022-09-17T08:21:56.909Z,11.40
2022-09-17T08:24:23.683Z,12.30
2022-09-17T08:26:50.471Z,10.18
2022-09-17T08:29:17.230Z,11.38
2022-09-17T08:31:44.041Z,14.50
2022-09-17T08:34:11.201Z,14.82
2022-09-17T08:36:38.977Z,10.43
2022-09-17T08:42:11.904Z,10.38
2022-09-17T08:44:42.894Z,9.52
2022-09-17T08:47:33.670Z,14.05
2022-09-17T08:50:23.856Z,11.93
2022-09-17T08:52:59.905Z,9.45
2022-09-17T08:55:36.643Z,9.85
2022-09-17T08:58:28.615Z,10.48
2022-09-17T09:01:13.949Z,10.15
2022-09-17T09:04:05.653Z,9.70
2022-09-17T09:06:42.689Z,11.75
2022-09-17T09:09:20.125Z,10.13
2022-09-17T09:11:49.333Z,10.52
2022-09-17T09:14:46.142Z,12.57
2022-09-17T09:17:13.448Z,9.23
2022-09-17T09:19:45.757Z,10.35
2022-09-17T09:22:27.603Z,10.95
2022-09-17T09:25:02.673Z,4.43
2022-09-17T09:27:37.700Z,4.82
2022-09-17T09:30:10.587Z,4.22
2022-09-17T09:32:57.386Z,6.60
2022-09-17T09:35:33.807Z,9.25
2022-09-17T09:38:09.824Z,11.20
2022-09-17T09:40:58.641Z,9.38
2022-09-17T09:44:12.462Z,4.18
2022-09-17T09:47:02.664Z,5.78
2022-09-17T09:50:06.829Z,2.53
2022-09-17T09:53:05.972Z,7.43
2022-09-17T09:58:35.441Z,9.43
2022-09-17T10:01:03.227Z,10.32
2022-09-17T10:03:33.020Z,9.95
2022-09-17T10:06:01.653Z,10.18
2022-09-17T10:08:32.431Z,12.48
2022-09-17T10:11:03.543Z,13.48
2022-09-17T10:13:32.898Z,11.02
2022-09-17T10:16:18.438Z,11.00
2022-09-17T10:18:49.096Z,10.35
2022-09-17T10:21:49.150Z,11.15
2022-09-17T10:24:32.328Z,10.30
2022-09-17T10:27:05.633Z,10.73
2022-09-17T10:29:34.334Z,5.60
2022-09-17T10:32:01.624Z,8.52
2022-09-17T10:34:31.211Z,10.23
2022-09-17T10:36:59.023Z,11.18
2022-09-17T10:39:48.705Z,14.90
2022-09-17T10:42:17.568Z,10.50
2022-09-17T10:44:55.374Z,2.55
2022-09-17T10:47:22.240Z,10.75
2022-09-17T10:50:01.566Z,9.98
2022-09-17T10:52:34.573Z,5.07
2022-09-17T10:55:34.778Z,9.07
2022-09-17T10:58:07.648Z,10.93
2022-09-17T11:00:34.410Z,10.35
2022-09-17T11:03:25.928Z,9.35
2022-09-17T11:06:15.438Z,9.95
2022-09-17T11:09:32.748Z,9.20
2022-09-17T11:12:05.673Z,11.60
2022-09-17T11:14:41.755Z,10.95
2022-09-17T11:17:25.190Z,11.02
2022-09-17T11:20:04.365Z,11.45
2022-09-17T11:23:28.307Z,12.50
2022-09-17T11:26:08.759Z,10.60
2022-09-17T11:29:14.393Z,10.68
2022-09-17T11:31:58.153Z,12.18
2022-09-17T11:34:27.681Z,10.90
2022-09-17T11:37:22.886Z,4.18
2022-09-17T11:39:52.726Z,3.53
2022-09-17T11:42:46.287Z,10.88
2022-09-17T11:45:25.351Z,11.65
2022-09-17T11:48:01.477Z,11.57
2022-09-17T11:50:44.776Z,10.60
2022-09-17T11:53:38.034Z,10.77
2022-09-17T11:56:19.301Z,10.30
2022-09-17T11:58:54.144Z,10.93
2022-09-17T12:01:33.936Z,11.15
2022-09-17T12:04:12.481Z,13.35
2022-09-17T12:06:47.774Z,9.10
2022-09-17T12:09:21.178Z,9.27
2022-09-17T12:11:57.025Z,10.48
2022-09-17T12:14:53.126Z,10.23
2022-09-17T12:17:39.960Z,9.30
2022-09-17T12:20:16.093Z,9.00
2022-09-17T12:22:44.757Z,8.55
2022-09-17T12:25:14.439Z,9.40
2022-09-17T12:27:59.907Z,12.20
2022-09-17T12:30:44.427Z,9.95
2022-09-17T12:33:32.405Z,10.45
2022-09-17T12:36:05.728Z,11.55
2022-09-17T12:38:38.675Z,9.25
2022-09-17T12:41:18.909Z,9.30
2022-09-17T12:44:04.621Z,9.57
2022-09-17T12:46:56.321Z,9.55
2022-09-17T12:49:23.306Z,9.32
2022-09-17T12:52:32.933Z,8.98
2022-09-17T12:55:02.335Z,9.18
2022-09-17T12:57:40.792Z,7.95
2022-09-17T13:00:13.741Z,8.95
2022-09-17T13:03:00.072Z,8.95
2022-09-17T13:05:55.440Z,9.88
2022-09-17T13:08:34.221Z,9.98
2022-09-17T13:11:16.345Z,8.85
2022-09-17T13:14:01.192Z,12.55
2022-09-17T13:16:46.879Z,11.38
2022-09-17T13:19:49.597Z,12.13
2022-09-17T13:22:21.797Z,11.93
2022-09-17T13:25:09.358Z,9.00
2022-09-17T13:27:38.426Z,10.98
2022-09-17T13:32:33.058Z,9.98
2022-09-17T13:35:11.801Z,10.48
2022-09-17T13:37:56.513Z,11.88
2022-09-17T13:40:29.748Z,10.95
2022-09-17T13:43:12.183Z,9.98
2022-09-17T13:46:00.810Z,11.02
2022-09-17T13:48:33.957Z,13.65
2022-09-17T13:51:32.285Z,9.57
2022-09-17T13:54:03.126Z,11.50
2022-09-17T13:56:33.039Z,15.32
2022-09-17T13:59:17.218Z,15.07
2022-09-17T14:01:58.236Z,13.15
2022-09-17T14:04:42.999Z,14.50
2022-09-17T14:07:22.123Z,13.90
2022-09-17T14:09:59.074Z,15.35
2022-09-17T14:12:51.113Z,15.02
2022-09-17T14:15:36.373Z,15.10
2022-09-17T14:18:28.897Z,13.82
2022-09-17T14:21:25.127Z,12.90
2022-09-17T14:23:57.312Z,14.55
2022-09-17T14:27:00.488Z,14.90
2022-09-17T14:29:48.938Z,13.07
2022-09-17T14:32:32.447Z,15.05
2022-09-17T14:35:19.956Z,16.58
2022-09-17T14:37:52.863Z,18.00
2022-09-17T14:40:21.146Z,13.90
2022-09-17T14:42:55.285Z,15.77
2022-09-17T14:45:41.537Z,12.88
2022-09-17T14:48:31.964Z,14.23
2022-09-17T14:51:17.296Z,17.70
2022-09-17T14:54:09.732Z,14.98
2022-09-17T14:57:25.110Z,12.45
2022-09-17T14:59:59.125Z,13.15
2022-09-17T15:02:34.963Z,15.38
2022-09-17T15:05:04.109Z,11.98
2022-09-17T15:07:30.937Z,11.10
2022-09-17T15:10:15.552Z,11.35
2022-09-17T15:12:43.945Z,13.38
2022-09-17T15:15:23.732Z,13.05
2022-09-17T15:17:52.210Z,11.60
2022-09-17T15:20:25.039Z,11.37
2022-09-17T15:22:55.414Z,10.38
2022-09-17T15:25:27.030Z,10.93
2022-09-17T15:27:57.479Z,11.00
2022-09-17T15:30:25.796Z,12.50
2022-09-17T15:32:59.133Z,11.38
2022-09-17T15:35:32.795Z,11.10
2022-09-17T15:38:22.764Z,11.32
2022-09-17T15:40:51.105Z,12.77
2022-09-17T15:43:31.246Z,11.40
2022-09-17T15:45:58.501Z,11.57
2022-09-17T15:48:28.175Z,11.60
2022-09-17T15:50:57.931Z,10.93
2022-09-17T15:53:32.942Z,11.77
2022-09-17T15:56:03.036Z,13.65
2022-09-17T15:58:37.362Z,11.43
2022-09-17T16:01:30.081Z,15.20
2022-09-17T16:04:04.450Z,13.55
2022-09-17T16:06:31.248Z,11.52
2022-09-17T16:09:00.927Z,11.57
2022-09-17T16:11:30.583Z,11.90
2022-09-17T16:13:59.644Z,11.00
2022-09-17T16:16:34.627Z,11.85
2022-09-17T16:19:01.994Z,10.80
2022-09-17T16:21:31.592Z,12.32
2022-09-17T16:23:58.569Z,13.68
2022-09-17T16:26:30.755Z,10.55
2022-09-17T16:29:05.297Z,12.05
2022-09-17T16:31:33.205Z,11.98
2022-09-17T16:34:00.791Z,10.32
2022-09-17T16:36:31.251Z,11.43
2022-09-17T16:38:58.983Z,11.85
2022-09-17T16:41:26.443Z,12.32
2022-09-17T16:43:53.338Z,14.40
2022-09-17T16:46:20.081Z,11.20
2022-09-17T16:48:50.723Z,11.73
2022-09-17T16:51:17.604Z,11.45
2022-09-17T16:53:44.467Z,15.70
2022-09-17T16:56:13.452Z,10.63
2022-09-17T16:58:41.808Z,14.10
2022-09-17T17:01:16.385Z,11.43
2022-09-17T17:03:45.888Z,12.23
2022-09-17T17:08:42.905Z,11.18
2022-09-17T17:11:10.025Z,15.80
2022-09-17T17:13:36.911Z,15.10
2022-09-17T17:16:08.707Z,14.20
2022-09-17T17:18:35.708Z,11.50
2022-09-17T17:21:10.384Z,11.23
2022-09-17T17:23:37.325Z,12.45
2022-09-17T17:26:04.514Z,12.30
2022-09-17T17:28:33.348Z,11.45
2022-09-17T17:31:00.197Z,11.77
2022-09-17T17:33:26.952Z,13.10
2022-09-17T17:35:53.812Z,11.50
2022-09-17T17:38:21.256Z,14.00
2022-09-17T17:40:48.006Z,12.82
2022-09-17T17:43:14.877Z,11.43
2022-09-17T17:45:41.762Z,12.25
2022-09-17T17:48:08.488Z,11.30
2022-09-17T17:50:35.281Z,10.80
2022-09-17T17:53:02.143Z,11.98
2022-09-17T17:55:28.871Z,11.32
2022-09-17T17:58:01.605Z,13.77
2022-09-17T18:00:28.677Z,11.50
2022-09-17T18:02:55.508Z,11.93
2022-09-17T18:05:22.337Z,12.77
2022-09-17T18:07:49.839Z,13.40
2022-09-17T18:10:17.031Z,11.85
2022-09-17T18:12:50.871Z,13.02
2022-09-17T18:15:17.761Z,17.38
2022-09-17T18:17:44.610Z,13.75
2022-09-17T18:20:12.147Z,12.95
2022-09-17T18:22:38.960Z,17.77
2022-09-17T18:25:06.233Z,12.18
2022-09-17T18:27:33.272Z,11.88
2022-09-17T18:30:00.041Z,13.75
2022-09-17T18:32:26.771Z,13.90
2022-09-17T18:34:53.629Z,16.13
2022-09-17T18:37:20.458Z,12.18
2022-09-17T18:40:04.704Z,11.68
2022-09-17T18:42:32.264Z,12.63
2022-09-17T18:44:59.114Z,14.65
2022-09-17T18:47:27.132Z,12.50
2022-09-17T18:50:08.964Z,13.48
2022-09-17T18:52:42.702Z,13.45
2022-09-17T18:55:09.830Z,15.40
2022-09-17T18:57:36.708Z,11.88
2022-09-17T19:00:07.585Z,12.80
2022-09-17T19:02:34.600Z,13.48
2022-09-17T19:05:01.464Z,16.25
2022-09-17T19:07:28.168Z,12.27
2022-09-17T19:09:55.038Z,13.23
2022-09-17T19:12:21.764Z,15.07
2022-09-17T19:14:48.446Z,25.85
2022-09-17T19:17:15.400Z,20.67
2022-09-17T19:19:42.176Z,21.33
2022-09-17T19:22:08.980Z,19.80
2022-09-17T19:24:36.257Z,19.38
2022-09-17T19:27:04.373Z,15.38
2022-09-17T19:29:31.090Z,17.67
2022-09-17T19:31:57.844Z,14.10
2022-09-17T19:34:24.790Z,13.50
2022-09-17T19:36:52.221Z,14.25
2022-09-17T19:39:19.088Z,15.95
2022-09-17T19:41:46.012Z,13.57
2022-09-17T19:44:12.742Z,14.88
2022-09-17T19:46:39.899Z,13.98
2022-09-17T19:49:07.120Z,14.02
2022-09-17T19:51:34.017Z,15.07
2022-09-17T19:54:01.077Z,14.65
2022-09-17T19:56:28.117Z,14.93
2022-09-17T19:58:55.386Z,13.65
2022-09-17T20:01:22.317Z,12.65
2022-09-17T20:03:49.172Z,13.75
2022-09-17T20:06:18.004Z,12.82
2022-09-17T20:08:49.493Z,11.57
2022-09-17T20:11:17.386Z,10.75
2022-09-17T20:13:44.698Z,11.52
2022-09-17T20:16:20.162Z,15.05
2022-09-17T20:18:48.073Z,11.23
2022-09-17T20:21:23.853Z,12.07
2022-09-17T20:23:51.059Z,11.88
2022-09-17T20:26:18.530Z,16.85
2022-09-17T20:28:46.117Z,13.55
2022-09-17T20:31:14.763Z,12.95
2022-09-17T20:33:42.411Z,14.57
2022-09-17T20:36:14.150Z,13.45
2022-09-17T20:41:28.520Z,12.57
2022-09-17T20:43:55.860Z,13.20
2022-09-17T20:46:28.620Z,11.88
2022-09-17T20:48:58.181Z,16.73
2022-09-17T20:51:27.841Z,14.48
2022-09-17T20:53:55.117Z,12.55
2022-09-17T20:56:25.249Z,13.93
2022-09-17T20:59:07.867Z,12.73
2022-09-17T21:01:36.195Z,13.82
2022-09-17T21:04:04.472Z,15.68
2022-09-17T21:06:34.009Z,16.17
2022-09-17T21:11:29.330Z,11.68
2022-09-17T21:13:56.094Z,11.02
2022-09-17T21:16:23.214Z,11.68
2022-09-17T21:18:58.775Z,11.88
2022-09-17T21:21:26.583Z,12.13
2022-09-17T21:23:56.005Z,12.23
2022-09-17T21:26:24.525Z,11.18
2022-09-17T21:28:52.766Z,13.18
2022-09-17T21:31:22.192Z,9.55
2022-09-17T21:34:02.341Z,10.65
2022-09-17T21:36:31.962Z,13.05
2022-09-17T21:39:01.458Z,9.30
2022-09-17T21:41:29.079Z,9.82
2022-09-17T21:43:56.641Z,9.68
2022-09-17T21:46:34.188Z,9.48
2022-09-17T21:49:02.442Z,8.75
2022-09-17T21:51:34.320Z,11.10
2022-09-17T21:54:03.917Z,9.90
2022-09-17T21:59:04.285Z,9.68
2022-09-17T22:01:39.669Z,8.85
2022-09-17T22:04:12.811Z,10.10
2022-09-17T22:06:41.480Z,11.48
2022-09-17T22:09:22.659Z,10.63
2022-09-17T22:11:50.146Z,14.55
2022-09-17T22:14:21.950Z,11.05
2022-09-17T22:16:52.309Z,9.02
2022-09-17T22:19:20.907Z,9.32
2022-09-17T22:21:51.355Z,10.00
2022-09-17T22:24:19.992Z,8.40
2022-09-17T22:26:51.762Z,8.65
2022-09-17T22:29:23.318Z,8.35
2022-09-17T22:31:50.239Z,8.93
2022-09-17T22:34:20.378Z,8.23
2022-09-17T22:36:47.335Z,9.23
2022-09-17T22:39:14.152Z,9.25
2022-09-17T22:41:45.636Z,8.70
2022-09-17T22:45:13.723Z,8.80
2022-09-17T22:47:43.804Z,8.55
2022-09-17T22:50:11.551Z,9.55
2022-09-17T22:52:41.914Z,11.65
2022-09-17T22:55:09.283Z,7.95
2022-09-17T22:57:36.013Z,9.27
2022-09-17T23:03:39.248Z,8.10
2022-09-17T23:06:12.889Z,7.50
2022-09-17T23:08:40.610Z,7.82
2022-09-17T23:11:09.790Z,8.98
2022-09-17T23:13:36.835Z,8.02
2022-09-17T23:16:08.780Z,7.82
2022-09-17T23:18:36.931Z,7.68
2022-09-17T23:21:10.127Z,8.05
2022-09-17T23:23:37.874Z,7.65
2022-09-17T23:26:07.833Z,7.90
2022-09-17T23:28:36.593Z,7.88
2022-09-17T23:31:25.884Z,7.40
2022-09-17T23:33:54.144Z,8.38
2022-09-17T23:36:28.883Z,8.13
2022-09-17T23:38:57.150Z,8.15
2022-09-17T23:41:26.793Z,8.38
2022-09-17T23:43:56.346Z,8.52
2022-09-17T23:48:53.555Z,8.05
2022-09-17T23:51:25.168Z,11.52
2022-09-17T23:53:52.552Z,8.07
2022-09-17T23:56:21.953Z,7.53
2022-09-17T23:58:50.207Z,8.82
